createdAt,value
2023-03-26T00:01:16.894Z,95207.66
2023-03-26T00:03:46.358Z,95207.48
2023-03-26T00:06:15.953Z,95203.82
2023-03-26T00:08:47.084Z,95205.40
2023-03-26T00:11:16.196Z,95205.27
2023-03-26T00:13:43.572Z,95201.28
2023-03-26T00:16:11.544Z,95201.11
2023-03-26T00:18:39.904Z,95198.65
2023-03-26T00:21:07.377Z,95200.29
2023-03-26T00:23:35.001Z,95203.80
2023-03-26T00:26:04.028Z,95202.65
2023-03-26T00:28:30.723Z,95208.41
2023-03-26T00:31:02.433Z,95202.34
2023-03-26T00:33:31.138Z,95206.20
2023-03-26T00:36:01.363Z,95200.46
2023-03-26T00:38:30.377Z,95193.70
2023-03-26T00:41:05.276Z,95194.30
2023-03-26T00:43:35.660Z,95189.48
2023-03-26T00:46:02.888Z,95188.29
2023-03-26T00:48:43.922Z,95191.20
2023-03-26T00:51:17.116Z,95187.64
2023-03-26T00:53:45.676Z,95189.55
2023-03-26T00:56:13.540Z,95186.11
2023-03-26T00:58:41.381Z,95187.20
2023-03-26T01:01:14.206Z,95190.08
2023-03-26T01:03:50.327Z,95193.56
2023-03-26T01:06:27.596Z,95192.08
2023-03-26T01:08:59.389Z,95195.20
2023-03-26T01:11:29.967Z,95188.10
2023-03-26T01:14:00.360Z,95190.88
2023-03-26T01:16:38.471Z,95185.29
2023-03-26T01:19:12.277Z,95185.48
2023-03-26T01:21:39.133Z,95179.16
2023-03-26T01:24:09.696Z,95176.72
2023-03-26T01:26:53.396Z,95179.61
2023-03-26T01:29:29.386Z,95182.80
2023-03-26T01:32:01.957Z,95183.63
2023-03-26T01:34:33.236Z,95188.59
2023-03-26T01:37:04.008Z,95185.75
2023-03-26T01:39:48.689Z,95183.42
2023-03-26T01:42:28.090Z,95179.93
2023-03-26T01:45:01.795Z,95176.01
2023-03-26T01:47:29.510Z,95183.48
2023-03-26T01:49:56.158Z,95175.89
2023-03-26T01:52:26.155Z,95169.65
2023-03-26T01:54:54.953Z,95160.97
2023-03-26T01:57:44.699Z,95160.48
2023-03-26T02:00:30.269Z,95157.15
2023-03-26T02:03:18.775Z,95159.58
2023-03-26T02:05:57.323Z,95160.05
2023-03-26T02:08:39.097Z,95164.11
2023-03-26T02:11:12.549Z,95163.57
2023-03-26T02:13:42.227Z,95160.85
2023-03-26T02:16:13.542Z,95162.98
2023-03-26T02:18:40.471Z,95159.94
2023-03-26T02:21:20.731Z,95158.36
2023-03-26T02:23:57.157Z,95159.89
2023-03-26T02:26:24.590Z,95161.52
2023-03-26T02:29:04.226Z,95160.93
2023-03-26T02:31:31.450Z,95160.77
2023-03-26T02:33:58.261Z,95164.39
2023-03-26T02:36:29.051Z,95161.23
2023-03-26T02:38:59.611Z,95161.27
2023-03-26T02:41:26.678Z,95162.64
2023-03-26T02:43:57.515Z,95160.65
2023-03-26T02:46:34.547Z,95155.77
2023-03-26T02:49:21.788Z,95157.42
2023-03-26T02:51:48.510Z,95155.20
2023-03-26T02:54:25.583Z,95154.08
2023-03-26T02:57:12.539Z,95154.42
2023-03-26T03:00:21.353Z,95154.48
2023-03-26T03:02:49.633Z,95151.60
2023-03-26T03:05:32.640Z,95149.98
2023-03-26T03:08:11.370Z,95148.02
2023-03-26T03:10:43.183Z,95150.54
2023-03-26T03:13:17.537Z,95148.98
2023-03-26T03:15:44.231Z,95150.38
2023-03-26T03:18:10.892Z,95147.97
2023-03-26T03:20:37.516Z,95152.95
2023-03-26T03:23:04.622Z,95152.23
2023-03-26T03:25:33.139Z,95160.02
2023-03-26T03:28:00.333Z,95157.50
2023-03-26T03:30:27.345Z,95154.78
2023-03-26T03:33:18.552Z,95151.80
2023-03-26T03:35:47.478Z,95156.56
2023-03-26T03:38:15.226Z,95156.69
2023-03-26T03:40:46.858Z,95157.84
2023-03-26T03:43:13.803Z,95159.05
2023-03-26T03:45:50.757Z,95150.80
2023-03-26T03:48:38.593Z,95145.68
2023-03-26T03:51:06.202Z,95142.59
2023-03-26T03:53:47.377Z,95138.91
2023-03-26T03:56:18.400Z,95143.48
2023-03-26T03:59:05.103Z,95146.10
2023-03-26T04:01:34.357Z,95160.33
2023-03-26T04:04:06.899Z,95161.08
2023-03-26T04:06:52.491Z,95159.39
2023-03-26T04:09:20.187Z,95152.74
2023-03-26T04:11:47.331Z,95147.80
2023-03-26T04:14:40.628Z,95151.59
2023-03-26T04:17:25.830Z,95151.01
2023-03-26T04:19:54.707Z,95148.16
2023-03-26T04:22:23.092Z,95145.39
2023-03-26T04:24:55.804Z,95142.37
2023-03-26T04:27:32.541Z,95140.73
2023-03-26T04:30:22.622Z,95138.16
2023-03-26T04:33:03.312Z,95134.80
2023-03-26T04:35:36.082Z,95129.00
2023-03-26T04:38:07.202Z,95129.41
2023-03-26T04:40:39.173Z,95127.14
2023-03-26T04:43:34.905Z,95125.85
2023-03-26T04:46:22.824Z,95122.95
2023-03-26T04:48:55.016Z,95123.30
2023-03-26T04:51:26.464Z,95121.55
2023-03-26T04:54:00.009Z,95123.62
2023-03-26T04:56:46.362Z,95121.79
2023-03-26T04:59:35.121Z,95121.63
2023-03-26T05:02:05.494Z,95128.67
2023-03-26T05:04:40.541Z,95124.02
2023-03-26T05:07:09.493Z,95127.23
2023-03-26T05:09:42.338Z,95129.41
2023-03-26T05:12:16.117Z,95125.95
2023-03-26T05:14:50.751Z,95127.27
2023-03-26T05:17:24.538Z,95124.55
2023-03-26T05:19:53.982Z,95123.15
2023-03-26T05:22:20.710Z,95125.11
2023-03-26T05:25:08.315Z,95124.76
2023-03-26T05:27:35.036Z,95122.02
2023-03-26T05:30:03.077Z,95129.10
2023-03-26T05:32:32.186Z,95129.31
2023-03-26T05:34:59.123Z,95126.32
2023-03-26T05:37:30.359Z,95123.05
2023-03-26T05:40:03.503Z,95122.02
2023-03-26T05:42:41.278Z,95122.91
2023-03-26T05:45:25.807Z,95121.40
2023-03-26T05:47:54.268Z,95124.05
2023-03-26T05:50:22.878Z,95114.19
2023-03-26T05:52:50.126Z,95116.17
2023-03-26T05:55:45.108Z,95119.73
2023-03-26T05:58:32.706Z,95119.13
2023-03-26T06:01:19.184Z,95121.48
2023-03-26T06:04:18.071Z,95116.66
2023-03-26T06:06:52.138Z,95121.33
2023-03-26T06:09:18.954Z,95127.05
2023-03-26T06:11:45.518Z,95128.34
2023-03-26T06:14:12.181Z,95125.87
2023-03-26T06:16:46.270Z,95126.62
2023-03-26T06:19:19.832Z,95123.64
2023-03-26T06:21:54.545Z,95126.25
2023-03-26T06:24:25.160Z,95120.55
2023-03-26T06:27:20.558Z,95124.66
2023-03-26T06:30:22.569Z,95130.04
2023-03-26T06:33:15.889Z,95129.02
2023-03-26T06:35:47.461Z,95135.07
2023-03-26T06:38:15.280Z,95139.38
2023-03-26T06:40:44.632Z,95136.05
2023-03-26T06:43:26.649Z,95134.46
2023-03-26T06:46:12.761Z,95132.87
2023-03-26T06:48:58.976Z,95130.08
2023-03-26T06:51:51.330Z,95134.51
2023-03-26T06:54:47.062Z,95130.49
2023-03-26T06:57:34.108Z,95130.21
2023-03-26T07:00:33.147Z,95131.19
2023-03-26T07:03:18.831Z,95128.27
2023-03-26T07:06:15.065Z,95129.36
2023-03-26T07:09:00.295Z,95123.84
2023-03-26T07:11:45.859Z,95125.97
2023-03-26T07:14:32.150Z,95123.55
2023-03-26T07:17:06.815Z,95119.98
2023-03-26T07:20:07.699Z,95121.55
2023-03-26T07:22:35.086Z,95122.76
2023-03-26T07:25:25.285Z,95122.66
2023-03-26T07:28:19.859Z,95117.81
2023-03-26T07:31:13.931Z,95122.16
2023-03-26T07:34:18.334Z,95116.95
2023-03-26T07:37:35.069Z,95116.54
2023-03-26T07:40:40.700Z,95109.35
2023-03-26T07:43:44.090Z,95107.04
2023-03-26T07:46:36.412Z,95113.36
2023-03-26T07:49:21.991Z,95107.63
2023-03-26T07:52:09.984Z,95107.98
2023-03-26T07:54:56.155Z,95107.15
2023-03-26T07:58:02.705Z,95106.09
2023-03-26T08:01:15.474Z,95110.50
2023-03-26T08:04:23.860Z,95111.46
2023-03-26T08:07:29.696Z,95105.36
2023-03-26T08:10:27.517Z,95107.40
2023-03-26T08:13:21.529Z,95112.80
2023-03-26T08:16:05.162Z,95110.18
2023-03-26T08:18:43.938Z,95110.91
2023-03-26T08:21:16.539Z,95106.67
2023-03-26T08:23:59.432Z,95106.48
2023-03-26T08:26:35.518Z,95108.38
2023-03-26T08:29:20.370Z,95108.87
2023-03-26T08:31:48.779Z,95101.48
2023-03-26T08:34:15.640Z,95095.19
2023-03-26T08:36:42.315Z,95093.52
2023-03-26T08:39:09.257Z,95094.40
2023-03-26T08:42:07.298Z,95089.61
2023-03-26T08:45:11.887Z,95086.95
2023-03-26T08:47:59.944Z,95083.84
2023-03-26T08:50:48.863Z,95078.56
2023-03-26T08:53:24.654Z,95077.52
2023-03-26T08:56:25.407Z,95078.94
2023-03-26T08:59:31.932Z,95073.17
2023-03-26T09:02:17.329Z,95072.80
2023-03-26T09:05:10.858Z,95077.73
2023-03-26T09:07:59.585Z,95077.72
2023-03-26T09:11:10.701Z,95080.23
2023-03-26T09:14:18.541Z,95076.16
2023-03-26T09:16:45.442Z,95078.40
2023-03-26T09:19:43.287Z,95078.18
2023-03-26T09:22:22.346Z,95077.73
2023-03-26T09:25:14.828Z,95074.62
2023-03-26T09:28:21.256Z,95076.91
2023-03-26T09:31:00.015Z,95079.20
2023-03-26T09:33:32.589Z,95073.58
2023-03-26T09:36:18.897Z,95078.65
2023-03-26T09:38:54.071Z,95081.70
2023-03-26T09:41:34.023Z,95080.13
2023-03-26T09:44:15.476Z,95082.48
2023-03-26T09:46:51.169Z,95085.09
2023-03-26T09:49:54.600Z,95084.73
2023-03-26T09:52:24.154Z,95083.15
2023-03-26T09:54:59.807Z,95082.25
2023-03-26T09:57:45.115Z,95078.84
2023-03-26T10:00:54.227Z,95079.70
2023-03-26T10:03:46.044Z,95078.06
2023-03-26T10:06:31.011Z,95063.33
2023-03-26T10:09:20.297Z,95062.42
2023-03-26T10:12:06.007Z,95062.73
2023-03-26T10:15:02.544Z,95057.19
2023-03-26T10:17:33.041Z,95058.81
2023-03-26T10:20:25.905Z,95062.09
2023-03-26T10:23:36.500Z,95058.74
2023-03-26T10:26:29.355Z,95057.91
2023-03-26T10:29:31.338Z,95051.95
2023-03-26T10:32:09.402Z,95050.60
2023-03-26T10:34:51.229Z,95052.39
2023-03-26T10:37:55.011Z,95047.01
2023-03-26T10:40:27.085Z,95046.48
2023-03-26T10:43:31.647Z,95045.88
2023-03-26T10:46:16.792Z,95045.48
2023-03-26T10:49:20.960Z,95038.02
2023-03-26T10:51:56.498Z,95036.95
2023-03-26T10:54:47.822Z,95038.83
2023-03-26T10:57:42.666Z,95041.57
2023-03-26T11:00:25.069Z,95033.80
2023-03-26T11:03:19.126Z,95031.84
2023-03-26T11:06:23.164Z,95027.91
2023-03-26T11:09:01.370Z,95030.45
2023-03-26T11:11:54.106Z,95029.33
2023-03-26T11:14:34.318Z,95031.53
2023-03-26T11:17:39.566Z,95033.20
2023-03-26T11:20:28.099Z,95043.08
2023-03-26T11:23:27.328Z,95040.36
2023-03-26T11:26:01.329Z,95043.75
2023-03-26T11:28:37.179Z,95044.81
2023-03-26T11:31:13.113Z,95046.34
2023-03-26T11:33:47.755Z,95053.19
2023-03-26T11:36:20.976Z,95054.04
2023-03-26T11:38:50.800Z,95063.59
2023-03-26T11:41:32.300Z,95068.85
2023-03-26T11:44:26.818Z,95069.50
2023-03-26T11:47:00.667Z,95062.55
2023-03-26T11:49:28.832Z,95058.50
2023-03-26T11:51:55.976Z,95050.58
2023-03-26T11:54:22.851Z,95044.09
2023-03-26T11:57:04.864Z,95039.90
2023-03-26T12:00:17.597Z,95041.05
2023-03-26T12:02:46.265Z,95030.95
2023-03-26T12:05:15.217Z,95029.89
2023-03-26T12:07:49.099Z,95023.41
2023-03-26T12:10:28.791Z,95020.79
2023-03-26T12:12:59.830Z,95020.20
2023-03-26T12:15:28.041Z,95016.84
2023-03-26T12:17:57.589Z,95011.53
2023-03-26T12:20:24.479Z,95011.47
2023-03-26T12:22:58.624Z,95014.02
2023-03-26T12:25:29.248Z,95017.49
2023-03-26T12:28:16.677Z,95015.90
2023-03-26T12:31:00.351Z,95014.85
2023-03-26T12:33:35.284Z,95016.14
2023-03-26T12:36:20.034Z,95006.98
2023-03-26T12:39:43.066Z,95000.07
2023-03-26T12:44:44.186Z,94993.64
2023-03-26T12:44:59.216Z,94986.45
2023-03-26T12:48:00.766Z,94978.41
2023-03-26T12:50:34.584Z,94975.02
2023-03-26T12:53:49.008Z,94971.81
2023-03-26T12:56:46.147Z,94961.58
2023-03-26T12:59:18.649Z,94958.50
2023-03-26T13:01:55.736Z,94954.83
2023-03-26T13:04:26.499Z,94956.55
2023-03-26T13:07:02.615Z,94951.89
2023-03-26T13:09:44.905Z,94946.61
2023-03-26T13:12:38.344Z,94942.66
2023-03-26T13:15:33.398Z,94941.25
2023-03-26T13:18:18.304Z,94932.20
2023-03-26T13:21:17.318Z,94928.77
2023-03-26T13:24:06.017Z,94928.36
2023-03-26T13:27:14.831Z,94923.33
2023-03-26T13:30:01.610Z,94919.95
2023-03-26T13:32:39.060Z,94918.14
2023-03-26T13:35:27.307Z,94910.30
2023-03-26T13:38:32.973Z,94913.59
2023-03-26T13:41:33.090Z,94903.23
2023-03-26T13:44:03.970Z,94904.59
2023-03-26T13:46:42.671Z,94907.10
2023-03-26T13:49:24.399Z,94909.09
2023-03-26T13:52:09.917Z,94903.52
2023-03-26T13:55:08.105Z,94902.23
2023-03-26T13:57:43.024Z,94899.14
2023-03-26T14:00:22.032Z,94895.88
2023-03-26T14:02:58.455Z,94897.61
2023-03-26T14:05:42.721Z,94892.91
2023-03-26T14:08:26.338Z,94894.52
2023-03-26T14:11:07.796Z,94895.23
2023-03-26T14:13:56.811Z,94894.18
2023-03-26T14:16:44.387Z,94898.95
2023-03-26T14:19:41.256Z,94905.77
2023-03-26T14:22:20.689Z,94908.36
2023-03-26T14:25:08.452Z,94908.73
2023-03-26T14:27:52.285Z,94907.66
2023-03-26T14:30:41.948Z,94906.35
2023-03-26T14:33:27.161Z,94905.83
2023-03-26T14:36:05.065Z,94905.94
2023-03-26T14:39:10.899Z,94907.20
2023-03-26T14:41:54.026Z,94905.46
2023-03-26T14:44:27.835Z,94907.51
2023-03-26T14:47:15.797Z,94903.11
2023-03-26T14:50:15.593Z,94902.17
2023-03-26T14:52:52.258Z,94900.92
2023-03-26T14:55:53.870Z,94901.96
2023-03-26T14:58:24.737Z,94897.75
2023-03-26T15:01:25.615Z,94898.94
2023-03-26T15:04:31.629Z,94891.85
2023-03-26T15:07:32.362Z,94889.81
2023-03-26T15:10:12.056Z,94889.62
2023-03-26T15:13:08.052Z,94885.61
2023-03-26T15:16:09.502Z,94888.53
2023-03-26T15:19:00.514Z,94887.32
2023-03-26T15:21:34.285Z,94885.21
2023-03-26T15:24:30.318Z,94885.75
2023-03-26T15:27:26.886Z,94876.71
2023-03-26T15:30:04.498Z,94872.50
2023-03-26T15:32:40.752Z,94868.85
2023-03-26T15:35:39.018Z,94869.56
2023-03-26T15:38:17.881Z,94867.13
2023-03-26T15:41:11.384Z,94865.79
2023-03-26T15:46:50.104Z,94866.36
2023-03-26T15:49:41.963Z,94866.84
2023-03-26T15:52:28.417Z,94863.03
2023-03-26T15:55:33.199Z,94860.91
2023-03-26T15:58:07.842Z,94857.63
2023-03-26T16:00:47.873Z,94860.02
2023-03-26T16:03:31.210Z,94854.81
2023-03-26T16:06:06.879Z,94855.30
2023-03-26T16:08:40.703Z,94854.76
2023-03-26T16:11:12.856Z,94855.17
2023-03-26T16:13:44.952Z,94853.48
2023-03-26T16:16:16.187Z,94854.25
2023-03-26T16:19:23.135Z,94851.19
2023-03-26T16:22:04.415Z,94845.54
2023-03-26T16:24:40.201Z,94846.92
2023-03-26T16:27:14.188Z,94845.67
2023-03-26T16:30:02.685Z,94848.59
2023-03-26T16:32:41.336Z,94847.50
2023-03-26T16:35:15.059Z,94852.91
2023-03-26T16:38:04.749Z,94847.27
2023-03-26T16:40:35.204Z,94850.92
2023-03-26T16:43:12.621Z,94851.99
2023-03-26T16:46:06.967Z,94847.73
2023-03-26T16:48:48.049Z,94848.43
2023-03-26T16:51:53.679Z,94847.13
2023-03-26T16:54:40.158Z,94843.14
2023-03-26T16:57:28.289Z,94841.59
2023-03-26T17:00:05.096Z,94841.10
2023-03-26T17:03:13.997Z,94837.08
2023-03-26T17:06:03.366Z,94836.27
2023-03-26T17:08:42.159Z,94832.30
2023-03-26T17:11:22.194Z,94831.73
2023-03-26T17:14:21.297Z,94830.08
2023-03-26T17:17:26.312Z,94831.29
2023-03-26T17:23:39.640Z,94833.77
2023-03-26T17:26:23.175Z,94837.86
2023-03-26T17:29:11.419Z,94841.95
2023-03-26T17:32:08.649Z,94843.45
2023-03-26T17:34:40.266Z,94843.93
2023-03-26T17:37:30.825Z,94845.05
2023-03-26T17:40:01.810Z,94844.60
2023-03-26T17:42:36.126Z,94841.98
2023-03-26T17:45:29.027Z,94841.44
2023-03-26T17:48:02.866Z,94842.57
2023-03-26T17:50:34.742Z,94841.58
2023-03-26T17:53:30.867Z,94844.36
2023-03-26T17:56:04.102Z,94842.39
2023-03-26T17:58:47.994Z,94843.23
2023-03-26T18:01:41.506Z,94844.67
2023-03-26T18:04:19.904Z,94847.42
2023-03-26T18:07:26.324Z,94847.69
2023-03-26T18:10:07.182Z,94844.80
2023-03-26T18:13:01.990Z,94844.79
2023-03-26T18:15:51.809Z,94843.92
2023-03-26T18:18:27.516Z,94845.50
2023-03-26T18:20:58.622Z,94840.96
2023-03-26T18:23:37.463Z,94837.78
2023-03-26T18:26:11.406Z,94836.76
2023-03-26T18:28:45.450Z,94834.59
2023-03-26T18:31:22.827Z,94831.95
2023-03-26T18:33:55.146Z,94828.20
2023-03-26T18:36:25.894Z,94826.80
2023-03-26T18:38:59.200Z,94824.88
2023-03-26T18:41:42.855Z,94827.00
2023-03-26T18:44:16.757Z,94833.23
2023-03-26T18:46:45.296Z,94833.09
2023-03-26T18:49:15.494Z,94830.92
2023-03-26T18:51:56.079Z,94825.41
2023-03-26T18:54:32.145Z,94823.98
2023-03-26T18:57:16.156Z,94828.36
2023-03-26T18:59:48.830Z,94831.19
2023-03-26T19:02:18.273Z,94831.64
2023-03-26T19:04:49.314Z,94824.66
2023-03-26T19:07:25.147Z,94825.41
2023-03-26T19:09:56.427Z,94823.68
2023-03-26T19:12:32.544Z,94822.98
2023-03-26T19:15:14.728Z,94824.02
2023-03-26T19:17:46.521Z,94825.92
2023-03-26T19:20:28.071Z,94818.98
2023-03-26T19:22:58.281Z,94818.98
2023-03-26T19:25:30.909Z,94820.08
2023-03-26T19:28:00.137Z,94821.67
2023-03-26T19:30:39.928Z,94819.39
2023-03-26T19:33:20.160Z,94818.64
2023-03-26T19:36:00.227Z,94814.13
2023-03-26T19:38:37.884Z,94819.23
2023-03-26T19:41:06.112Z,94818.82
2023-03-26T19:43:34.054Z,94820.42
2023-03-26T19:46:02.193Z,94816.02
2023-03-26T19:48:46.292Z,94815.93
2023-03-26T19:51:22.115Z,94813.55
2023-03-26T19:53:58.242Z,94806.27
2023-03-26T19:56:27.340Z,94805.73
2023-03-26T19:58:57.554Z,94800.08
2023-03-26T20:01:28.336Z,94801.48
2023-03-26T20:04:00.041Z,94798.85
2023-03-26T20:06:43.390Z,94803.91
2023-03-26T20:09:13.284Z,94807.05
2023-03-26T20:11:42.039Z,94808.95
2023-03-26T20:14:21.632Z,94812.04
2023-03-26T20:16:49.802Z,94811.11
2023-03-26T20:19:18.837Z,94812.34
2023-03-26T20:21:46.858Z,94810.42
2023-03-26T20:24:17.393Z,94812.35
2023-03-26T20:26:46.400Z,94806.34
2023-03-26T20:29:19.921Z,94807.30
2023-03-26T20:31:49.436Z,94802.53
2023-03-26T20:34:22.649Z,94801.13
2023-03-26T20:36:55.239Z,94798.45
2023-03-26T20:39:24.717Z,94793.16
2023-03-26T20:41:54.369Z,94792.81
2023-03-26T20:44:22.718Z,94791.04
2023-03-26T20:46:51.693Z,94782.67
2023-03-26T20:49:22.144Z,94780.45
2023-03-26T20:51:50.948Z,94781.86
2023-03-26T20:54:21.556Z,94779.64
2023-03-26T20:56:50.351Z,94772.64
2023-03-26T20:59:26.570Z,94768.25
2023-03-26T21:01:57.349Z,94767.06
2023-03-26T21:04:27.071Z,94762.80
2023-03-26T21:07:03.240Z,94758.30
2023-03-26T21:09:35.831Z,94751.05
2023-03-26T21:12:38.217Z,94748.83
2023-03-26T21:15:13.374Z,94746.58
2023-03-26T21:17:51.598Z,94743.09
2023-03-26T21:20:20.114Z,94739.98
2023-03-26T21:23:13.275Z,94735.97
2023-03-26T21:26:06.458Z,94739.61
2023-03-26T21:28:42.388Z,94735.88
2023-03-26T21:31:18.568Z,94733.35
2023-03-26T21:33:48.347Z,94734.45
2023-03-26T21:36:18.234Z,94733.21
2023-03-26T21:38:46.658Z,94729.36
2023-03-26T21:41:47.860Z,94722.83
2023-03-26T21:44:18.526Z,94716.74
2023-03-26T21:46:48.270Z,94716.98
2023-03-26T21:49:18.088Z,94719.57
2023-03-26T21:51:48.829Z,94717.17
2023-03-26T21:54:24.876Z,94717.56
2023-03-26T21:57:02.017Z,94721.33
2023-03-26T21:59:39.313Z,94723.58
2023-03-26T22:02:30.267Z,94719.70
2023-03-26T22:05:08.213Z,94717.61
2023-03-26T22:08:14.702Z,94717.66
2023-03-26T22:10:42.787Z,94718.65
2023-03-26T22:13:10.813Z,94718.13
2023-03-26T22:15:38.888Z,94713.76
2023-03-26T22:18:07.364Z,94710.44
2023-03-26T22:20:35.341Z,94706.79
2023-03-26T22:23:03.429Z,94699.79
2023-03-26T22:25:31.502Z,94688.92
2023-03-26T22:27:59.702Z,94688.58
2023-03-26T22:30:28.092Z,94691.64
2023-03-26T22:32:56.084Z,94688.13
2023-03-26T22:35:24.513Z,94688.45
2023-03-26T22:37:53.015Z,94684.40
2023-03-26T22:40:29.723Z,94685.11
2023-03-26T22:42:57.631Z,94687.11
2023-03-26T22:45:26.584Z,94688.78
2023-03-26T22:48:03.181Z,94686.67
2023-03-26T22:50:33.062Z,94678.48
2023-03-26T22:53:01.064Z,94670.68
2023-03-26T22:55:29.800Z,94666.77
2023-03-26T22:57:58.309Z,94660.58
2023-03-26T23:00:26.676Z,94657.63
2023-03-26T23:03:00.498Z,94659.77
2023-03-26T23:05:29.438Z,94661.86
2023-03-26T23:07:58.466Z,94659.95
2023-03-26T23:10:26.642Z,94658.13
2023-03-26T23:12:54.957Z,94654.11
2023-03-26T23:15:25.914Z,94652.96
2023-03-26T23:17:55.617Z,94652.80
2023-03-26T23:20:24.559Z,94647.39
2023-03-26T23:32:28.220Z,94633.64
2023-03-26T23:34:56.450Z,94634.77
2023-03-26T23:37:24.778Z,94633.95
2023-03-26T23:39:52.970Z,94636.27
2023-03-26T23:42:28.844Z,94635.08
2023-03-26T23:44:57.891Z,94634.80
2023-03-26T23:47:27.241Z,94637.23
2023-03-26T23:49:56.047Z,94638.74
2023-03-26T23:52:23.981Z,94632.88
2023-03-26T23:54:51.900Z,94627.81
2023-03-26T23:57:19.856Z,94626.64
2023-03-26T23:59:48.663Z,94628.86
